Time;durP1;ratioP1;P1;durP2;ratioP2;P2;SDS_P1;SDS_P2;PMS_P1;PMS_P2;Temp;Humidity;BMP_temperature;BMP_pressure;BME280_temperature;BME280_humidity;BME280_pressure;Samples;Min_cycle;Max_cycle;Signal;HPM_P1;HPM_P2
2024/04/07 00:01:35;;;;;;;5.13;1.77;;;16.30;99.90;;;;;;5083533;28;20140;-82
2024/04/07 00:04:03;;;;;;;7.03;1.88;;;16.30;99.90;;;;;;5097126;27;20560;-82
2024/04/07 00:06:31;;;;;;;7.05;1.58;;;16.20;99.90;;;;;;5103392;27;20050;-81
2024/04/07 00:08:57;;;;;;;7.00;1.85;;;16.20;99.90;;;;;;5103296;27;20504;-82
2024/04/07 00:11:23;;;;;;;5.53;1.90;;;16.20;99.90;;;;;;5103586;27;20043;-80
2024/04/07 00:13:49;;;;;;;3.70;1.73;;;16.20;99.90;;;;;;5103801;27;20082;-82
2024/04/07 00:16:14;;;;;;;8.00;1.85;;;16.10;99.90;;;;;;5089300;28;20062;-82
2024/04/07 00:18:40;;;;;;;5.80;1.65;;;16.20;99.90;;;;;;5083190;28;20376;-82
2024/04/07 00:21:06;;;;;;;6.93;2.00;;;16.20;99.90;;;;;;5082884;28;20051;-81
2024/04/07 00:23:32;;;;;;;7.28;2.00;;;16.20;99.90;;;;;;5066380;28;20059;-81
2024/04/07 00:25:59;;;;;;;7.32;1.92;;;16.20;99.90;;;;;;5082974;28;20055;-81
2024/04/07 00:28:26;;;;;;;5.97;1.80;;;16.10;99.90;;;;;;5100130;28;20058;-82
2024/04/07 00:30:52;;;;;;;5.57;1.50;;;16.20;99.90;;;;;;5082944;28;20520;-81
2024/04/07 00:33:17;;;;;;;9.35;1.98;;;16.20;99.90;;;;;;5082817;28;20055;-82
2024/04/07 00:35:58;;;;;;;8.02;1.90;;;16.20;99.90;;;;;;5082751;28;20682;-81
2024/04/07 00:38:24;;;;;;;7.22;1.80;;;16.20;99.90;;;;;;5083547;28;20562;-82
2024/04/07 00:40:54;;;;;;;5.53;1.90;;;16.20;99.90;;;;;;5095925;28;20114;-81
2024/04/07 00:43:20;;;;;;;4.70;1.83;;;16.20;99.90;;;;;;5097450;28;20748;-82
2024/04/07 00:45:46;;;;;;;8.45;2.22;;;16.20;99.90;;;;;;5089845;27;20717;-82
2024/04/07 00:48:17;;;;;;;10.07;2.22;;;16.20;99.90;;;;;;5086070;27;20116;-82
2024/04/07 00:51:03;;;;;;;12.32;2.28;;;16.20;99.90;;;;;;5103169;27;20051;-81
2024/04/07 00:53:29;;;;;;;9.85;1.77;;;16.20;99.90;;;;;;5099984;27;20043;-81
2024/04/07 00:55:55;;;;;;;15.82;2.47;;;16.30;99.90;;;;;;5085966;27;20569;-82
2024/04/07 00:58:22;;;;;;;13.38;1.98;;;16.30;99.90;;;;;;5085768;27;20039;-81
2024/04/07 01:00:47;;;;;;;10.65;2.50;;;16.40;99.90;;;;;;5098821;28;20377;-82
2024/04/07 01:03:15;;;;;;;6.80;1.77;;;16.40;99.90;;;;;;5064872;28;20051;-81
2024/04/07 01:05:48;;;;;;;12.75;2.20;;;16.50;99.90;;;;;;5081760;28;20389;-81
2024/04/07 01:08:15;;;;;;;6.80;1.50;;;16.50;99.90;;;;;;5065011;28;20089;-82
2024/04/07 01:10:42;;;;;;;11.05;1.95;;;16.50;99.90;;;;;;5090126;27;20046;-82
2024/04/07 01:13:09;;;;;;;7.72;2.00;;;16.60;99.90;;;;;;5101489;27;20087;-82
2024/04/07 01:15:35;;;;;;;11.90;2.05;;;16.70;99.90;;;;;;5102075;27;20051;-82
2024/04/07 01:18:02;;;;;;;17.52;2.05;;;16.70;99.90;;;;;;5120872;27;20062;-82
2024/04/07 01:20:28;;;;;;;11.20;1.90;;;16.70;99.90;;;;;;5085518;27;20480;-82
2024/04/07 01:22:55;;;;;;;8.60;1.88;;;16.70;99.90;;;;;;5102227;27;20054;-82
2024/04/07 01:25:21;;;;;;;7.13;2.00;;;16.80;99.90;;;;;;5102424;27;20046;-82
2024/04/07 01:27:56;;;;;;;7.60;1.60;;;16.80;99.90;;;;;;5102651;27;20053;-82
2024/04/07 01:30:22;;;;;;;7.45;1.60;;;16.80;99.90;;;;;;5102723;27;20086;-82
2024/04/07 01:32:48;;;;;;;11.25;1.70;;;16.80;99.90;;;;;;5085117;27;20159;-81
2024/04/07 01:35:15;;;;;;;6.22;1.70;;;16.80;99.90;;;;;;5101859;27;20047;-82
2024/04/07 01:37:41;;;;;;;7.35;1.67;;;16.90;99.90;;;;;;5085527;27;20051;-82
2024/04/07 01:40:09;;;;;;;6.28;1.52;;;16.90;99.90;;;;;;5097066;28;20500;-82
2024/04/07 01:42:35;;;;;;;6.43;1.30;;;16.80;99.90;;;;;;5074061;28;20512;-82
2024/04/07 01:45:02;;;;;;;6.18;1.38;;;16.80;99.90;;;;;;5064466;28;20159;-82
2024/04/07 01:47:27;;;;;;;6.60;1.92;;;16.80;99.90;;;;;;5081013;28;20139;-81
2024/04/07 01:49:53;;;;;;;4.97;1.58;;;16.70;99.90;;;;;;5072998;27;20043;-81
2024/04/07 01:52:19;;;;;;;7.88;1.88;;;16.70;99.90;;;;;;5067515;27;20400;-81
2024/04/07 01:54:45;;;;;;;5.35;1.40;;;16.60;99.90;;;;;;5084168;27;20684;-80
2024/04/07 01:57:12;;;;;;;6.03;1.30;;;16.60;99.90;;;;;;5084419;27;20051;-82
2024/04/07 01:59:37;;;;;;;6.65;1.38;;;16.60;99.90;;;;;;5120221;27;20051;-81
2024/04/07 02:02:03;;;;;;;6.93;1.60;;;16.50;99.90;;;;;;5119798;27;20485;-82
2024/04/07 02:04:29;;;;;;;5.97;1.60;;;16.50;99.90;;;;;;5119666;27;20050;-80
2024/04/07 02:06:55;;;;;;;6.75;1.45;;;16.40;99.90;;;;;;5101821;27;20138;-83
2024/04/07 02:09:21;;;;;;;4.57;1.55;;;16.30;99.90;;;;;;5112207;27;20085;-83
2024/04/07 02:11:47;;;;;;;6.40;1.75;;;16.30;99.90;;;;;;5119347;27;20121;-82
2024/04/07 02:14:13;;;;;;;5.07;1.30;;;16.10;99.90;;;;;;5119598;27;20127;-82
2024/04/07 02:16:38;;;;;;;5.78;1.10;;;16.10;99.90;;;;;;5119476;27;20613;-82
2024/04/07 02:19:04;;;;;;;5.20;1.27;;;16.00;99.90;;;;;;5119899;27;20049;-80
2024/04/07 02:21:29;;;;;;;7.00;1.23;;;16.00;99.90;;;;;;5100503;27;20051;-82
2024/04/07 02:23:55;;;;;;;7.82;1.23;;;15.90;99.90;;;;;;5119642;28;20047;-82
2024/04/07 02:26:21;;;;;;;7.13;1.50;;;15.90;99.90;;;;;;5101368;27;20082;-82
2024/04/07 02:28:47;;;;;;;9.38;1.67;;;15.80;99.90;;;;;;5119392;27;20130;-81
2024/04/07 02:31:13;;;;;;;6.45;1.23;;;15.80;99.90;;;;;;5119375;28;20043;-81
2024/04/07 02:33:39;;;;;;;6.70;1.77;;;15.70;99.90;;;;;;5119416;28;20731;-83
2024/04/07 02:36:06;;;;;;;5.72;1.20;;;15.70;99.90;;;;;;5114248;28;20588;-82
2024/04/07 02:38:32;;;;;;;6.10;1.67;;;15.60;99.90;;;;;;5087033;28;20066;-82
2024/04/07 02:40:57;;;;;;;6.43;1.15;;;15.60;99.90;;;;;;5109112;28;20051;-82
2024/04/07 02:43:23;;;;;;;5.55;1.50;;;15.60;99.90;;;;;;5119212;28;20418;-82
2024/04/07 02:48:33;;;;;;;7.03;1.00;;;15.50;99.90;;;;;;5100506;28;20047;-83
2024/04/07 02:50:58;;;;;;;4.20;0.85;;;15.50;99.90;;;;;;5100923;28;20059;-82
2024/04/07 02:53:24;;;;;;;7.80;1.02;;;15.40;99.90;;;;;;5080737;28;20512;-81
2024/04/07 02:55:50;;;;;;;6.32;0.98;;;15.40;99.90;;;;;;5080423;28;20130;-82
2024/04/07 02:58:15;;;;;;;3.33;0.80;;;15.40;99.90;;;;;;5080333;28;20773;-83
2024/04/07 03:00:42;;;;;;;4.43;1.33;;;15.30;99.90;;;;;;5080921;28;20048;-83
2024/04/07 03:03:08;;;;;;;4.65;1.15;;;15.30;99.90;;;;;;5080618;28;20051;-82
2024/04/07 03:05:37;;;;;;;6.47;0.75;;;15.30;99.90;;;;;;5080866;28;20508;-82
2024/04/07 03:08:04;;;;;;;5.97;0.93;;;15.20;99.90;;;;;;5102804;28;20049;-81
2024/04/07 03:10:30;;;;;;;5.43;0.95;;;15.20;99.90;;;;;;5116797;28;20122;-82
2024/04/07 03:12:56;;;;;;;6.65;1.10;;;15.20;99.90;;;;;;5089738;28;20047;-82
2024/04/07 03:15:22;;;;;;;4.85;1.17;;;15.20;99.90;;;;;;5108206;28;20473;-81
2024/04/07 03:17:47;;;;;;;7.47;1.00;;;15.20;99.90;;;;;;5122820;28;20168;-81
2024/04/07 03:20:13;;;;;;;4.05;1.00;;;15.10;99.90;;;;;;5109629;28;20469;-81
2024/04/07 03:22:39;;;;;;;2.72;0.60;;;15.10;99.90;;;;;;5110829;28;20043;-82
2024/04/07 03:25:04;;;;;;;5.10;0.98;;;15.10;99.90;;;;;;5129646;28;20090;-81
2024/04/07 03:27:32;;;;;;;2.42;0.80;;;15.10;99.90;;;;;;5111991;27;20084;-82
2024/04/07 03:29:58;;;;;;;2.75;0.70;;;15.10;99.90;;;;;;5114170;27;20051;-83
2024/04/07 03:32:24;;;;;;;3.95;0.60;;;15.10;99.90;;;;;;5108563;28;20546;-81
2024/04/07 03:34:50;;;;;;;3.17;0.90;;;15.10;99.90;;;;;;5098418;28;20054;-82
2024/04/07 03:37:15;;;;;;;3.10;0.73;;;15.10;99.90;;;;;;5112380;28;20039;-82
2024/04/07 03:39:41;;;;;;;4.80;0.80;;;15.00;99.90;;;;;;5099622;27;20039;-82
2024/04/07 03:42:07;;;;;;;4.72;0.80;;;15.10;99.90;;;;;;5113495;27;20058;-82
2024/04/07 03:44:33;;;;;;;2.47;0.40;;;15.10;99.90;;;;;;5131985;27;20741;-80
2024/04/07 03:46:59;;;;;;;2.97;0.50;;;15.00;99.90;;;;;;5113687;27;20062;-82
2024/04/07 03:49:25;;;;;;;1.70;0.60;;;15.00;99.90;;;;;;5113752;27;20051;-80
2024/04/07 03:51:51;;;;;;;2.97;0.60;;;15.00;99.90;;;;;;5113630;27;20108;-83
2024/04/07 03:54:18;;;;;;;8.02;0.77;;;14.90;99.90;;;;;;5097321;27;20051;-82
2024/04/07 03:56:43;;;;;;;2.10;0.63;;;14.90;99.90;;;;;;5114342;27;20461;-80
2024/04/07 03:59:09;;;;;;;1.85;0.43;;;14.90;99.90;;;;;;5112970;27;20059;-80
2024/04/07 04:01:35;;;;;;;4.63;0.57;;;14.90;99.90;;;;;;5110907;27;20828;-82
2024/04/07 04:04:01;;;;;;;2.40;0.65;;;14.90;99.90;;;;;;5110501;27;20047;-82
2024/04/07 04:06:28;;;;;;;3.22;0.80;;;14.90;99.90;;;;;;5093727;28;20415;-82
2024/04/07 04:08:53;;;;;;;3.92;0.68;;;14.80;99.90;;;;;;5078995;27;20070;-80
2024/04/07 04:11:19;;;;;;;3.08;0.90;;;14.80;99.90;;;;;;5117165;27;20674;-80
2024/04/07 04:13:49;;;;;;;3.40;0.70;;;14.80;99.90;;;;;;5105132;27;20085;-82
2024/04/07 04:16:18;;;;;;;2.42;0.68;;;14.80;99.90;;;;;;5131317;27;20051;-81
2024/04/07 04:18:44;;;;;;;4.45;0.80;;;14.70;99.90;;;;;;5111390;27;20078;-80
2024/04/07 04:21:10;;;;;;;4.43;0.93;;;14.70;99.90;;;;;;5110704;28;20428;-81
2024/04/07 04:23:40;;;;;;;2.85;0.60;;;14.70;99.90;;;;;;5106796;27;20758;-80
2024/04/07 04:26:06;;;;;;;4.60;1.17;;;14.70;99.90;;;;;;5130295;27;20043;-82
2024/04/07 04:28:33;;;;;;;3.47;0.75;;;14.70;99.90;;;;;;5109261;28;20044;-82
2024/04/07 04:31:01;;;;;;;4.32;0.93;;;14.60;99.90;;;;;;5092563;28;20047;-82
2024/04/07 04:33:27;;;;;;;9.73;1.20;;;14.50;99.90;;;;;;5091386;28;20049;-82
2024/04/07 04:35:54;;;;;;;3.20;0.90;;;14.50;99.90;;;;;;5091577;28;20048;-79
2024/04/07 04:38:20;;;;;;;4.47;0.90;;;14.50;99.90;;;;;;5109887;28;20044;-82
2024/04/07 04:40:52;;;;;;;5.20;1.00;;;14.50;99.90;;;;;;5091627;28;20724;-81
2024/04/07 04:43:19;;;;;;;3.75;0.82;;;14.50;99.90;;;;;;5090544;28;20606;-80
2024/04/07 04:45:45;;;;;;;5.95;1.08;;;14.40;99.90;;;;;;5102506;28;20050;-81
2024/04/07 04:48:11;;;;;;;3.80;0.90;;;14.40;99.90;;;;;;5091267;28;20702;-82
2024/04/07 04:50:37;;;;;;;4.88;0.95;;;14.40;99.90;;;;;;5107167;27;20047;-82
2024/04/07 04:53:03;;;;;;;4.65;0.85;;;14.30;99.90;;;;;;5128784;27;20046;-81
2024/04/07 04:55:31;;;;;;;5.35;1.00;;;14.30;99.90;;;;;;5110635;27;20058;-80
2024/04/07 04:57:56;;;;;;;5.90;1.13;;;14.30;99.90;;;;;;5100039;27;20051;-81
2024/04/07 05:00:22;;;;;;;5.47;0.95;;;14.30;99.90;;;;;;5099178;27;20558;-81
2024/04/07 05:02:48;;;;;;;3.10;0.73;;;14.30;99.90;;;;;;5112353;27;20120;-81
2024/04/07 05:05:14;;;;;;;2.53;0.73;;;14.20;99.90;;;;;;5103966;27;20044;-83
2024/04/07 05:07:40;;;;;;;4.38;0.85;;;14.20;99.90;;;;;;5103294;27;20100;-83
2024/04/07 05:10:06;;;;;;;3.78;0.77;;;14.20;99.90;;;;;;5103874;27;20130;-82
2024/04/07 05:12:32;;;;;;;4.40;0.90;;;14.20;99.90;;;;;;5086618;27;20133;-80
2024/04/07 05:14:57;;;;;;;2.55;0.80;;;14.20;99.90;;;;;;5098195;27;20127;-82
2024/04/07 05:17:23;;;;;;;2.83;0.50;;;14.20;99.90;;;;;;5090081;28;20079;-83
2024/04/07 05:19:52;;;;;;;3.05;0.70;;;14.20;99.90;;;;;;5099093;27;20089;-83
2024/04/07 05:22:17;;;;;;;8.25;0.68;;;14.20;99.90;;;;;;5093947;27;20053;-83
2024/04/07 05:24:43;;;;;;;3.15;0.47;;;14.20;99.90;;;;;;5121394;27;20031;-83
2024/04/07 05:27:09;;;;;;;4.20;0.50;;;14.20;99.90;;;;;;5093335;28;20047;-82
2024/04/07 05:29:35;;;;;;;4.88;0.63;;;14.20;99.90;;;;;;5087964;27;20055;-82
2024/04/07 05:32:00;;;;;;;4.93;0.60;;;14.20;99.90;;;;;;5099468;28;20383;-82
2024/04/07 05:34:29;;;;;;;1.77;0.50;;;14.20;99.90;;;;;;5117229;27;20534;-84
2024/04/07 05:36:55;;;;;;;2.85;0.52;;;14.20;99.90;;;;;;5081878;27;20062;-82
2024/04/07 05:39:20;;;;;;;2.60;0.60;;;14.20;99.90;;;;;;5112760;27;20047;-82
2024/04/07 05:41:48;;;;;;;2.33;0.40;;;14.20;99.90;;;;;;5097105;27;20054;-83
2024/04/07 05:44:14;;;;;;;2.97;0.60;;;14.20;99.90;;;;;;5101428;27;20059;-83
2024/04/07 05:46:39;;;;;;;3.15;0.52;;;14.20;99.90;;;;;;5095728;27;20042;-82
2024/04/07 05:49:05;;;;;;;3.22;0.50;;;14.20;99.90;;;;;;5124952;27;20440;-83
2024/04/07 05:51:30;;;;;;;2.42;0.47;;;14.20;99.90;;;;;;5103232;27;20095;-83
2024/04/07 05:53:56;;;;;;;2.78;0.70;;;14.30;99.90;;;;;;5101963;27;20648;-82
2024/04/07 05:56:22;;;;;;;3.78;0.50;;;14.30;99.90;;;;;;5100504;27;20050;-82
2024/04/07 05:58:47;;;;;;;2.95;0.88;;;14.30;99.90;;;;;;5109646;27;20775;-83
2024/04/07 06:01:13;;;;;;;2.40;0.40;;;14.30;99.90;;;;;;5098393;27;20040;-83
2024/04/07 06:03:39;;;;;;;2.88;0.43;;;14.40;99.90;;;;;;5111826;27;20039;-84
2024/04/07 06:06:05;;;;;;;1.65;0.50;;;14.40;99.90;;;;;;5100589;27;20054;-82
2024/04/07 06:08:31;;;;;;;1.30;0.40;;;14.40;99.90;;;;;;5103250;28;20052;-82
2024/04/07 06:10:56;;;;;;;3.30;0.50;;;14.50;99.90;;;;;;5107397;27;20043;-82
2024/04/07 06:13:22;;;;;;;3.35;0.47;;;14.50;99.90;;;;;;5123393;27;20043;-81
2024/04/07 06:15:47;;;;;;;2.90;0.50;;;14.50;99.90;;;;;;5105965;27;20047;-83
2024/04/07 06:18:13;;;;;;;3.40;0.40;;;14.50;99.90;;;;;;5095960;28;20741;-82
2024/04/07 06:20:45;;;;;;;2.20;0.50;;;14.50;99.90;;;;;;5101841;27;20054;-84
2024/04/07 06:23:10;;;;;;;3.05;0.40;;;14.50;99.90;;;;;;5111902;27;20047;-82
2024/04/07 06:25:36;;;;;;;1.88;0.50;;;14.60;99.90;;;;;;5096995;27;20043;-83
2024/04/07 06:28:02;;;;;;;2.25;0.30;;;14.60;99.90;;;;;;5093904;28;20097;-85
2024/04/07 06:30:28;;;;;;;1.55;0.50;;;14.60;99.90;;;;;;5110346;28;20139;-84
2024/04/07 06:32:53;;;;;;;5.63;0.70;;;14.50;99.90;;;;;;5084350;28;20660;-81
2024/04/07 06:35:19;;;;;;;2.55;0.60;;;14.60;99.90;;;;;;5094076;28;20039;-82
2024/04/07 06:37:44;;;;;;;3.67;0.60;;;14.50;99.90;;;;;;5112616;27;20659;-81
2024/04/07 06:40:10;;;;;;;1.30;0.30;;;14.60;99.90;;;;;;5113924;27;20048;-81
2024/04/07 06:42:36;;;;;;;4.40;0.68;;;14.60;99.90;;;;;;5098236;28;20486;-81
2024/04/07 06:45:02;;;;;;;3.67;0.30;;;14.60;99.90;;;;;;5091792;28;20043;-82
2024/04/07 06:47:30;;;;;;;2.75;0.73;;;14.50;99.90;;;;;;5099011;28;20786;-82
2024/04/07 06:49:57;;;;;;;2.92;0.52;;;14.50;99.90;;;;;;5102084;28;20058;-81
2024/04/07 06:52:24;;;;;;;1.85;0.45;;;14.50;99.90;;;;;;5121969;28;20107;-80
2024/04/07 06:54:49;;;;;;;2.05;0.40;;;14.50;99.90;;;;;;5099005;28;20070;-80
2024/04/07 06:57:17;;;;;;;1.30;0.40;;;14.50;99.90;;;;;;5099973;28;20039;-81
2024/04/07 06:59:43;;;;;;;2.40;0.50;;;14.40;99.90;;;;;;5104167;27;20361;-80
2024/04/07 07:02:08;;;;;;;2.58;0.50;;;14.40;99.90;;;;;;5102113;27;20081;-81
2024/04/07 07:04:34;;;;;;;3.83;0.45;;;14.30;99.90;;;;;;5116768;27;20051;-81
2024/04/07 07:07:00;;;;;;;2.88;0.50;;;14.40;99.90;;;;;;5097188;28;20511;-81
2024/04/07 07:09:27;;;;;;;2.05;0.60;;;14.40;99.90;;;;;;5108837;27;20133;-81
2024/04/07 07:11:52;;;;;;;3.92;0.93;;;14.50;99.90;;;;;;5098707;27;20048;-81
2024/04/07 07:14:18;;;;;;;4.72;0.40;;;14.50;99.90;;;;;;5105116;27;20043;-80
2024/04/07 07:16:44;;;;;;;2.05;0.50;;;14.50;99.90;;;;;;5108351;28;20039;-81
2024/04/07 07:19:09;;;;;;;5.05;0.57;;;14.50;99.90;;;;;;5115714;27;20047;-84
2024/04/07 07:21:35;;;;;;;3.35;0.65;;;14.60;99.90;;;;;;5100136;27;20052;-80
2024/04/07 07:24:01;;;;;;;2.72;0.50;;;14.60;99.90;;;;;;5101731;28;20065;-81
2024/04/07 07:26:26;;;;;;;8.18;1.17;;;14.70;99.90;;;;;;5113643;27;20042;-80
2024/04/07 07:28:52;;;;;;;6.72;0.52;;;14.70;99.90;;;;;;5098118;28;20375;-80
2024/04/07 07:31:19;;;;;;;1.17;0.50;;;14.80;99.90;;;;;;5111444;27;20104;-79
2024/04/07 07:33:45;;;;;;;3.60;0.43;;;14.80;99.90;;;;;;5120845;27;20047;-80
2024/04/07 07:36:10;;;;;;;6.00;0.65;;;14.80;99.90;;;;;;5117354;27;20040;-80
2024/04/07 07:38:36;;;;;;;1.73;0.50;;;14.80;99.90;;;;;;5107167;27;20489;-80
2024/04/07 07:41:02;;;;;;;5.07;0.80;;;14.90;99.90;;;;;;5099012;27;20051;-80
2024/04/07 07:43:27;;;;;;;1.17;0.43;;;14.90;99.90;;;;;;5104490;27;20086;-82
2024/04/07 07:45:54;;;;;;;2.85;0.70;;;15.00;99.90;;;;;;5099355;28;20043;-81
2024/04/07 07:48:19;;;;;;;3.40;0.60;;;15.00;99.90;;;;;;5106464;27;20066;-81
2024/04/07 07:50:45;;;;;;;5.68;0.68;;;15.10;99.90;;;;;;5099142;27;20484;-81
2024/04/07 07:53:10;;;;;;;5.35;0.80;;;15.10;99.90;;;;;;5099468;28;20047;-84
2024/04/07 07:55:36;;;;;;;3.55;0.70;;;15.10;99.90;;;;;;5101091;27;20040;-82
2024/04/07 07:58:02;;;;;;;4.13;0.95;;;15.20;99.90;;;;;;5095575;28;20113;-81
2024/04/07 08:00:31;;;;;;;3.55;1.00;;;15.20;99.90;;;;;;5101810;27;20043;-81
2024/04/07 08:02:59;;;;;;;3.13;0.80;;;15.30;99.90;;;;;;5113029;27;20050;-81
2024/04/07 08:05:24;;;;;;;4.50;1.20;;;15.30;99.90;;;;;;5095295;27;20713;-81
2024/04/07 08:07:50;;;;;;;4.90;1.23;;;15.40;99.90;;;;;;5095331;27;20185;-79
2024/04/07 08:10:16;;;;;;;6.60;0.98;;;15.30;99.90;;;;;;5093930;28;20181;-82
2024/04/07 08:12:43;;;;;;;3.75;1.00;;;15.40;99.90;;;;;;5118053;27;20463;-81
2024/04/07 08:15:11;;;;;;;4.68;0.90;;;15.50;99.90;;;;;;5114299;27;20686;-81
2024/04/07 08:17:37;;;;;;;5.07;1.30;;;15.50;99.90;;;;;;5113315;27;20063;-81
2024/04/07 08:20:04;;;;;;;5.93;1.17;;;15.60;99.90;;;;;;5097276;27;20085;-81
2024/04/07 08:22:30;;;;;;;5.85;1.10;;;15.60;99.90;;;;;;5103058;27;20051;-81
2024/04/07 08:24:55;;;;;;;4.47;1.23;;;15.60;99.90;;;;;;5093352;28;20759;-81
2024/04/07 08:27:21;;;;;;;5.00;1.02;;;15.60;99.90;;;;;;5100115;27;20105;-82
2024/04/07 08:29:47;;;;;;;4.82;1.30;;;15.70;99.90;;;;;;5093770;28;20067;-81
2024/04/07 08:32:13;;;;;;;5.97;1.30;;;15.70;99.90;;;;;;5118761;27;20035;-81
2024/04/07 08:34:39;;;;;;;4.15;1.10;;;15.80;99.90;;;;;;5091853;27;20055;-81
2024/04/07 08:37:05;;;;;;;3.10;1.00;;;15.70;99.90;;;;;;5085356;27;20043;-82
2024/04/07 08:39:31;;;;;;;4.70;1.30;;;15.80;99.90;;;;;;5090044;28;20670;-81
2024/04/07 08:42:00;;;;;;;4.80;1.17;;;15.80;99.90;;;;;;5095265;27;20794;-82
2024/04/07 08:44:27;;;;;;;4.25;0.85;;;15.80;99.90;;;;;;5091718;27;20120;-82
2024/04/07 08:46:53;;;;;;;5.10;1.05;;;15.80;99.90;;;;;;5096214;27;20047;-81
2024/04/07 08:49:20;;;;;;;4.25;0.73;;;15.80;99.90;;;;;;5112116;27;20131;-80
2024/04/07 08:51:48;;;;;;;2.92;1.00;;;15.90;99.90;;;;;;5093250;27;20035;-81
2024/04/07 08:54:16;;;;;;;6.63;1.05;;;16.00;99.90;;;;;;5095673;27;20047;-80
2024/04/07 08:56:43;;;;;;;4.90;0.80;;;16.00;99.90;;;;;;5095183;27;20722;-82
2024/04/07 08:59:10;;;;;;;3.28;0.50;;;16.00;99.90;;;;;;5096960;27;20721;-82
2024/04/07 09:01:38;;;;;;;3.20;1.00;;;16.10;99.90;;;;;;5098020;27;20047;-82
2024/04/07 09:04:04;;;;;;;4.15;0.80;;;16.10;99.90;;;;;;5098983;28;20048;-82
2024/04/07 09:06:30;;;;;;;3.30;0.63;;;16.30;99.90;;;;;;5096740;27;20078;-80
2024/04/07 09:08:57;;;;;;;2.97;0.45;;;16.40;99.90;;;;;;5092158;27;20047;-81
2024/04/07 09:11:26;;;;;;;4.70;0.45;;;16.60;99.90;;;;;;5099741;27;20035;-80
2024/04/07 09:13:52;;;;;;;4.50;0.63;;;16.80;99.90;;;;;;5096316;28;20132;-81
2024/04/07 09:16:18;;;;;;;3.40;0.82;;;17.00;99.90;;;;;;5094328;28;20803;-81
2024/04/07 09:18:45;;;;;;;3.20;0.80;;;17.20;99.90;;;;;;5093279;27;21442;-81
2024/04/07 09:21:22;;;;;;;3.03;0.70;;;17.50;99.90;;;;;;5090042;27;20436;-83
2024/04/07 09:23:49;;;;;;;6.35;1.67;;;17.70;99.90;;;;;;5112249;27;20083;-81
2024/04/07 09:26:16;;;;;;;3.28;0.60;;;17.90;99.90;;;;;;5095932;28;20697;-82
2024/04/07 09:28:42;;;;;;;2.58;0.60;;;18.10;99.90;;;;;;5103889;27;20047;-82
2024/04/07 09:31:08;;;;;;;4.13;0.70;;;18.20;99.90;;;;;;5093183;28;20043;-80
2024/04/07 09:33:37;;;;;;;3.05;0.70;;;18.20;99.90;;;;;;5096981;27;20058;-81
2024/04/07 09:36:03;;;;;;;3.58;0.60;;;18.10;99.90;;;;;;5092156;28;20058;-79
2024/04/07 09:38:29;;;;;;;4.20;0.80;;;18.10;99.90;;;;;;5095373;27;20833;-81
2024/04/07 09:41:00;;;;;;;7.20;1.10;;;18.10;99.90;;;;;;5090827;27;20043;-81
2024/04/07 09:43:27;;;;;;;4.65;0.80;;;18.10;99.90;;;;;;5094373;27;20047;-82
2024/04/07 09:45:53;;;;;;;6.38;0.80;;;18.20;99.90;;;;;;5110631;27;21938;-80
2024/04/07 09:48:21;;;;;;;6.95;1.40;;;18.40;99.90;;;;;;5091006;28;20047;-82
2024/04/07 09:50:53;;;;;;;5.03;0.90;;;18.50;99.90;;;;;;5093206;28;20110;-82
2024/04/07 09:53:21;;;;;;;2.38;0.77;;;18.40;99.90;;;;;;5098324;27;20856;-81
2024/04/07 09:55:50;;;;;;;4.70;0.68;;;18.30;99.90;;;;;;5113130;27;20519;-82
2024/04/07 09:58:17;;;;;;;3.47;0.63;;;18.30;99.90;;;;;;5089240;27;20611;-82
2024/04/07 10:00:43;;;;;;;3.90;0.57;;;18.30;99.90;;;;;;5089478;27;20082;-80
2024/04/07 10:03:10;;;;;;;4.88;0.63;;;18.40;99.90;;;;;;5094787;28;20042;-82
2024/04/07 10:05:36;;;;;;;7.47;0.88;;;18.50;99.90;;;;;;5093978;27;20043;-82
2024/04/07 10:08:02;;;;;;;5.50;0.65;;;18.60;99.90;;;;;;5088115;28;20405;-82
2024/04/07 10:10:28;;;;;;;5.07;0.60;;;18.70;99.90;;;;;;5086605;27;20455;-82
2024/04/07 10:13:05;;;;;;;4.47;0.95;;;18.80;99.90;;;;;;5118166;27;20053;-81
2024/04/07 10:15:31;;;;;;;4.63;0.52;;;18.90;99.90;;;;;;5093828;27;20039;-80
2024/04/07 10:17:57;;;;;;;2.60;0.75;;;18.90;99.90;;;;;;5105892;27;20113;-81
2024/04/07 10:20:26;;;;;;;5.10;0.50;;;19.00;99.90;;;;;;5090162;28;20453;-79
2024/04/07 10:22:53;;;;;;;4.05;0.63;;;19.10;99.90;;;;;;5100303;27;20802;-81
2024/04/07 10:25:19;;;;;;;4.68;0.65;;;19.20;99.90;;;;;;5091243;28;20163;-81
2024/04/07 10:27:47;;;;;;;2.53;0.50;;;19.30;99.90;;;;;;5097934;27;20907;-81
2024/04/07 10:30:15;;;;;;;3.17;0.55;;;19.30;99.90;;;;;;5097483;28;20556;-80
2024/04/07 10:32:41;;;;;;;3.70;0.60;;;19.40;99.90;;;;;;5109442;27;20045;-81
2024/04/07 10:35:08;;;;;;;2.97;0.60;;;19.50;99.90;;;;;;5088924;28;20055;-81
2024/04/07 10:37:36;;;;;;;4.28;0.60;;;19.60;99.90;;;;;;5096892;28;20773;-82
2024/04/07 10:40:06;;;;;;;4.07;0.70;;;19.70;99.90;;;;;;5094384;28;20484;-82
2024/04/07 10:42:36;;;;;;;3.58;0.60;;;19.80;99.90;;;;;;5073769;28;20118;-81
2024/04/07 10:45:02;;;;;;;2.03;0.40;;;19.80;99.90;;;;;;5087445;27;20555;-82
2024/04/07 10:47:29;;;;;;;7.63;0.70;;;19.80;99.90;;;;;;5090154;28;20052;-82
2024/04/07 10:49:55;;;;;;;3.60;0.63;;;20.00;99.90;;;;;;5089853;28;20043;-81
2024/04/07 10:52:23;;;;;;;3.17;0.57;;;20.10;99.90;;;;;;5094349;28;20048;-82
2024/04/07 10:54:49;;;;;;;3.30;0.60;;;20.10;99.90;;;;;;5089743;28;20043;-81
2024/04/07 10:57:15;;;;;;;3.17;0.80;;;20.20;99.90;;;;;;5091840;28;20047;-81
2024/04/07 10:59:42;;;;;;;2.63;0.57;;;20.30;99.90;;;;;;5092362;27;20072;-81
2024/04/07 11:02:08;;;;;;;1.98;0.43;;;20.40;99.90;;;;;;5096703;28;20307;-82
2024/04/07 11:04:37;;;;;;;2.67;0.60;;;20.30;99.90;;;;;;5092912;27;20039;-81
2024/04/07 11:07:04;;;;;;;6.03;1.08;;;20.30;99.90;;;;;;5087611;28;20035;-82
2024/04/07 11:09:31;;;;;;;2.67;0.65;;;20.30;98.70;;;;;;5075824;28;20040;-81
2024/04/07 11:11:58;;;;;;;4.82;0.60;;;20.40;99.90;;;;;;5113232;28;20055;-82
2024/04/07 11:14:28;;;;;;;4.63;0.90;;;20.50;99.90;;;;;;5118250;28;20068;-81
2024/04/07 11:16:55;;;;;;;2.05;0.50;;;20.60;99.90;;;;;;5092520;28;20044;-82
2024/04/07 11:19:25;;;;;;;3.20;0.60;;;20.60;99.90;;;;;;5094516;28;20481;-81
2024/04/07 11:21:51;;;;;;;5.53;0.70;;;20.60;99.90;;;;;;5090549;28;20059;-83
2024/04/07 11:24:20;;;;;;;3.38;0.70;;;20.70;99.90;;;;;;5092803;28;20048;-81
2024/04/07 11:26:49;;;;;;;3.25;0.70;;;20.80;99.90;;;;;;5095802;28;20047;-81
2024/04/07 11:29:16;;;;;;;6.53;0.68;;;20.70;99.00;;;;;;5089292;28;20047;-84
2024/04/07 11:31:57;;;;;;;4.15;0.50;;;20.50;99.90;;;;;;5098875;28;20126;-83
2024/04/07 11:34:25;;;;;;;4.55;0.50;;;20.50;99.00;;;;;;5098186;28;20039;-81
2024/04/07 11:36:50;;;;;;;2.13;0.40;;;20.50;97.60;;;;;;5094461;28;20055;-82
2024/04/07 11:39:17;;;;;;;2.60;0.43;;;20.50;97.50;;;;;;5096932;28;20039;-80
2024/04/07 11:41:43;;;;;;;3.88;0.60;;;20.50;97.80;;;;;;5093281;28;20039;-82
2024/04/07 11:44:09;;;;;;;2.58;0.50;;;20.50;97.60;;;;;;5088340;28;20122;-80
2024/04/07 11:46:35;;;;;;;2.83;0.52;;;20.50;97.20;;;;;;5100167;28;20059;-81
2024/04/07 11:49:00;;;;;;;4.05;1.40;;;20.60;98.70;;;;;;5087207;28;20074;-81
2024/04/07 11:51:26;;;;;;;2.42;0.55;;;20.70;97.90;;;;;;5102359;27;20051;-82
2024/04/07 11:53:54;;;;;;;3.22;0.88;;;20.80;98.20;;;;;;5092923;28;20473;-81
2024/04/07 11:56:20;;;;;;;3.05;0.47;;;20.80;97.30;;;;;;5114326;27;20050;-82
2024/04/07 11:58:45;;;;;;;4.00;0.85;;;20.90;97.60;;;;;;5096235;27;20770;-81
2024/04/07 12:01:11;;;;;;;2.13;0.47;;;21.00;97.20;;;;;;5099741;27;20162;-82
2024/04/07 12:03:37;;;;;;;5.68;0.93;;;21.10;97.40;;;;;;5110055;27;20054;-81
2024/04/07 12:06:04;;;;;;;3.70;0.63;;;21.20;96.80;;;;;;5092444;28;20047;-80
2024/04/07 12:08:29;;;;;;;5.72;0.60;;;21.30;96.70;;;;;;5094331;27;20849;-81
2024/04/07 12:10:55;;;;;;;3.13;0.60;;;21.30;97.10;;;;;;5096240;27;20086;-81
2024/04/07 12:13:20;;;;;;;4.20;0.85;;;21.40;97.60;;;;;;5094509;28;20070;-83
2024/04/07 12:15:46;;;;;;;2.38;0.57;;;21.40;95.50;;;;;;5095588;27;20777;-83
2024/04/07 12:18:12;;;;;;;3.58;0.63;;;21.40;97.10;;;;;;5095099;27;20059;-82
2024/04/07 12:20:37;;;;;;;1.02;0.40;;;21.30;96.70;;;;;;5099693;27;20481;-82
2024/04/07 12:23:03;;;;;;;8.82;0.75;;;21.30;96.80;;;;;;5093354;27;20052;-81
2024/04/07 12:25:30;;;;;;;4.25;0.75;;;21.30;95.70;;;;;;5111139;27;20047;-81
2024/04/07 12:27:55;;;;;;;4.13;0.85;;;21.40;97.70;;;;;;5101157;27;20519;-81
2024/04/07 12:30:21;;;;;;;7.80;0.55;;;21.40;94.90;;;;;;5096733;27;20047;-81
2024/04/07 12:32:47;;;;;;;4.65;0.60;;;21.50;96.40;;;;;;5098797;27;20068;-81
2024/04/07 12:35:12;;;;;;;3.20;0.50;;;21.60;95.80;;;;;;5091848;28;20776;-82
2024/04/07 12:37:39;;;;;;;4.13;0.65;;;21.70;94.70;;;;;;5096374;27;20051;-82
2024/04/07 12:40:05;;;;;;;7.13;0.50;;;21.70;94.80;;;;;;5096952;27;20040;-82
2024/04/07 12:42:32;;;;;;;4.43;0.95;;;21.80;95.80;;;;;;5096689;27;20083;-82
2024/04/07 12:44:58;;;;;;;3.50;0.70;;;21.90;94.30;;;;;;5094486;28;20086;-82